sensor_id;sensor_type;location;lat;lon;timestamp;pressure;altitude;pressure_sealevel;temperature;humidity
59939;BME280;45801;51.810;19.444;2024-03-08T00:02:24;99922.65;;;2.39;59.00
59939;BME280;45801;51.810;19.444;2024-03-08T00:04:51;99921.20;;;2.39;58.95
59939;BME280;45801;51.810;19.444;2024-03-08T00:07:17;99920.30;;;2.36;59.53
59939;BME280;45801;51.810;19.444;2024-03-08T00:09:44;99920.63;;;2.34;59.59
59939;BME280;45801;51.810;19.444;2024-03-08T00:12:10;99917.08;;;2.33;59.16
59939;BME280;45801;51.810;19.444;2024-03-08T00:14:37;99913.79;;;2.33;59.17
59939;BME280;45801;51.810;19.444;2024-03-08T00:17:04;99911.64;;;2.32;59.00
59939;BME280;45801;51.810;19.444;2024-03-08T00:19:31;99908.01;;;2.32;59.04
59939;BME280;45801;51.810;19.444;2024-03-08T00:21:58;99907.82;;;2.32;58.96
59939;BME280;45801;51.810;19.444;2024-03-08T00:24:24;99905.55;;;2.31;59.25
59939;BME280;45801;51.810;19.444;2024-03-08T00:26:51;99907.38;;;2.31;59.23
59939;BME280;45801;51.810;19.444;2024-03-08T00:29:18;99908.16;;;2.30;59.54
59939;BME280;45801;51.810;19.444;2024-03-08T00:31:44;99911.21;;;2.29;59.49
59939;BME280;45801;51.810;19.444;2024-03-08T00:34:12;99907.34;;;2.30;59.01
59939;BME280;45801;51.810;19.444;2024-03-08T00:36:41;99906.20;;;2.31;58.73
59939;BME280;45801;51.810;19.444;2024-03-08T00:39:07;99906.14;;;2.32;58.63
59939;BME280;45801;51.810;19.444;2024-03-08T00:41:34;99910.55;;;2.36;58.63
59939;BME280;45801;51.810;19.444;2024-03-08T00:44:03;99906.80;;;2.38;58.56
59939;BME280;45801;51.810;19.444;2024-03-08T00:46:31;99908.10;;;2.39;58.37
59939;BME280;45801;51.810;19.444;2024-03-08T00:48:59;99905.52;;;2.39;58.39
59939;BME280;45801;51.810;19.444;2024-03-08T00:51:25;99902.37;;;2.41;58.66
59939;BME280;45801;51.810;19.444;2024-03-08T00:53:53;99900.59;;;2.50;58.69
59939;BME280;45801;51.810;19.444;2024-03-08T00:56:22;99895.02;;;2.52;58.33
59939;BME280;45801;51.810;19.444;2024-03-08T00:58:48;99896.09;;;2.53;58.27
59939;BME280;45801;51.810;19.444;2024-03-08T01:01:15;99894.54;;;2.50;58.39
59939;BME280;45801;51.810;19.444;2024-03-08T01:03:44;99893.43;;;2.45;58.29
59939;BME280;45801;51.810;19.444;2024-03-08T01:06:11;99893.13;;;2.40;58.15
59939;BME280;45801;51.810;19.444;2024-03-08T01:08:38;99890.56;;;2.38;58.16
59939;BME280;45801;51.810;19.444;2024-03-08T01:11:05;99893.36;;;2.37;58.12
59939;BME280;45801;51.810;19.444;2024-03-08T01:13:34;99892.81;;;2.32;58.13
59939;BME280;45801;51.810;19.444;2024-03-08T01:16:03;99890.80;;;2.29;58.28
59939;BME280;45801;51.810;19.444;2024-03-08T01:18:29;99892.91;;;2.27;58.32
59939;BME280;45801;51.810;19.444;2024-03-08T01:20:56;99890.38;;;2.26;58.39
59939;BME280;45801;51.810;19.444;2024-03-08T01:23:23;99890.05;;;2.22;58.31
59939;BME280;45801;51.810;19.444;2024-03-08T01:25:50;99887.86;;;2.19;58.41
59939;BME280;45801;51.810;19.444;2024-03-08T01:28:25;99888.31;;;2.16;58.29
59939;BME280;45801;51.810;19.444;2024-03-08T01:30:53;99885.90;;;2.12;58.30
59939;BME280;45801;51.810;19.444;2024-03-08T01:33:23;99880.70;;;2.08;58.28
59939;BME280;45801;51.810;19.444;2024-03-08T01:35:50;99880.75;;;2.05;58.60
59939;BME280;45801;51.810;19.444;2024-03-08T01:38:17;99879.81;;;2.02;59.00
59939;BME280;45801;51.810;19.444;2024-03-08T01:40:43;99878.52;;;2.01;58.90
59939;BME280;45801;51.810;19.444;2024-03-08T01:43:25;99877.75;;;1.98;58.88
59939;BME280;45801;51.810;19.444;2024-03-08T01:45:57;99873.44;;;1.92;59.43
59939;BME280;45801;51.810;19.444;2024-03-08T01:48:30;99872.45;;;1.87;59.33
59939;BME280;45801;51.810;19.444;2024-03-08T01:50:57;99873.33;;;1.85;59.37
59939;BME280;45801;51.810;19.444;2024-03-08T01:53:24;99873.35;;;1.83;59.30
59939;BME280;45801;51.810;19.444;2024-03-08T01:55:56;99872.39;;;1.82;59.71
59939;BME280;45801;51.810;19.444;2024-03-08T01:58:24;99873.85;;;2.05;59.99
59939;BME280;45801;51.810;19.444;2024-03-08T02:00:52;99873.70;;;2.21;59.23
59939;BME280;45801;51.810;19.444;2024-03-08T02:03:19;99872.45;;;2.20;59.22
59939;BME280;45801;51.810;19.444;2024-03-08T02:05:46;99870.90;;;2.19;59.15
59939;BME280;45801;51.810;19.444;2024-03-08T02:08:13;99870.25;;;2.15;58.87
59939;BME280;45801;51.810;19.444;2024-03-08T02:10:41;99864.70;;;2.09;58.87
59939;BME280;45801;51.810;19.444;2024-03-08T02:13:08;99865.05;;;2.05;58.95
59939;BME280;45801;51.810;19.444;2024-03-08T02:15:55;99866.64;;;2.03;59.09
59939;BME280;45801;51.810;19.444;2024-03-08T02:18:23;99865.62;;;2.01;58.77
59939;BME280;45801;51.810;19.444;2024-03-08T02:20:57;99863.11;;;1.98;58.76
59939;BME280;45801;51.810;19.444;2024-03-08T02:23:25;99859.54;;;1.93;59.12
59939;BME280;45801;51.810;19.444;2024-03-08T02:25:52;99862.90;;;1.90;59.14
59939;BME280;45801;51.810;19.444;2024-03-08T02:28:20;99863.39;;;1.90;58.98
59939;BME280;45801;51.810;19.444;2024-03-08T02:30:47;99862.52;;;1.89;58.74
59939;BME280;45801;51.810;19.444;2024-03-08T02:33:15;99860.33;;;1.88;58.80
59939;BME280;45801;51.810;19.444;2024-03-08T02:35:46;99854.28;;;1.84;59.02
59939;BME280;45801;51.810;19.444;2024-03-08T02:38:23;99860.52;;;1.83;58.83
59939;BME280;45801;51.810;19.444;2024-03-08T02:40:51;99856.90;;;1.82;58.95
59939;BME280;45801;51.810;19.444;2024-03-08T02:43:20;99857.23;;;1.85;58.90
59939;BME280;45801;51.810;19.444;2024-03-08T02:45:48;99858.48;;;1.85;58.78
59939;BME280;45801;51.810;19.444;2024-03-08T02:48:16;99856.02;;;1.84;58.68
59939;BME280;45801;51.810;19.444;2024-03-08T02:50:43;99852.05;;;1.84;58.71
59939;BME280;45801;51.810;19.444;2024-03-08T02:53:12;99851.95;;;1.85;58.59
59939;BME280;45801;51.810;19.444;2024-03-08T02:55:39;99850.06;;;1.85;58.46
59939;BME280;45801;51.810;19.444;2024-03-08T02:58:10;99849.11;;;1.84;58.61
59939;BME280;45801;51.810;19.444;2024-03-08T03:00:37;99853.70;;;1.81;58.67
59939;BME280;45801;51.810;19.444;2024-03-08T03:03:05;99850.13;;;1.78;58.37
59939;BME280;45801;51.810;19.444;2024-03-08T03:05:35;99849.39;;;1.74;58.52
59939;BME280;45801;51.810;19.444;2024-03-08T03:08:02;99846.92;;;1.67;58.73
59939;BME280;45801;51.810;19.444;2024-03-08T03:10:35;99847.11;;;1.64;58.68
59939;BME280;45801;51.810;19.444;2024-03-08T03:13:02;99847.10;;;1.61;58.69
59939;BME280;45801;51.810;19.444;2024-03-08T03:15:31;99845.64;;;1.58;58.71
59939;BME280;45801;51.810;19.444;2024-03-08T03:17:59;99844.57;;;1.56;58.72
59939;BME280;45801;51.810;19.444;2024-03-08T03:20:26;99845.50;;;1.53;58.64
59939;BME280;45801;51.810;19.444;2024-03-08T03:23:02;99839.71;;;1.52;58.83
59939;BME280;45801;51.810;19.444;2024-03-08T03:25:29;99844.37;;;1.48;59.26
59939;BME280;45801;51.810;19.444;2024-03-08T03:28:04;99843.42;;;1.43;59.45
59939;BME280;45801;51.810;19.444;2024-03-08T03:30:33;99845.42;;;1.40;59.48
59939;BME280;45801;51.810;19.444;2024-03-08T03:33:01;99848.02;;;1.38;59.24
59939;BME280;45801;51.810;19.444;2024-03-08T03:35:28;99845.34;;;1.37;58.97
59939;BME280;45801;51.810;19.444;2024-03-08T03:37:58;99845.86;;;1.37;58.99
59939;BME280;45801;51.810;19.444;2024-03-08T03:40:28;99849.54;;;1.38;58.86
59939;BME280;45801;51.810;19.444;2024-03-08T03:42:55;99851.38;;;1.35;58.89
59939;BME280;45801;51.810;19.444;2024-03-08T03:45:26;99851.30;;;1.34;59.03
59939;BME280;45801;51.810;19.444;2024-03-08T03:47:52;99851.27;;;1.36;59.02
59939;BME280;45801;51.810;19.444;2024-03-08T03:50:20;99851.39;;;1.39;59.15
59939;BME280;45801;51.810;19.444;2024-03-08T03:52:47;99851.34;;;1.41;58.98
59939;BME280;45801;51.810;19.444;2024-03-08T03:55:14;99850.04;;;1.40;58.81
59939;BME280;45801;51.810;19.444;2024-03-08T03:57:44;99847.02;;;1.37;59.03
59939;BME280;45801;51.810;19.444;2024-03-08T04:00:13;99845.88;;;1.33;58.92
59939;BME280;45801;51.810;19.444;2024-03-08T04:02:42;99845.32;;;1.31;58.83
59939;BME280;45801;51.810;19.444;2024-03-08T04:05:09;99846.45;;;1.31;58.94
59939;BME280;45801;51.810;19.444;2024-03-08T04:07:37;99842.04;;;1.30;58.70
59939;BME280;45801;51.810;19.444;2024-03-08T04:10:06;99842.43;;;1.30;59.08
59939;BME280;45801;51.810;19.444;2024-03-08T04:12:38;99839.81;;;1.30;58.93
59939;BME280;45801;51.810;19.444;2024-03-08T04:15:07;99840.11;;;1.29;58.97
59939;BME280;45801;51.810;19.444;2024-03-08T04:17:34;99837.38;;;1.27;59.00
59939;BME280;45801;51.810;19.444;2024-03-08T04:20:06;99832.15;;;1.25;58.92
59939;BME280;45801;51.810;19.444;2024-03-08T04:22:44;99830.20;;;1.22;59.06
59939;BME280;45801;51.810;19.444;2024-03-08T04:25:15;99829.16;;;1.22;59.07
59939;BME280;45801;51.810;19.444;2024-03-08T04:27:43;99832.77;;;1.20;59.01
59939;BME280;45801;51.810;19.444;2024-03-08T04:30:11;99831.41;;;1.19;59.10
59939;BME280;45801;51.810;19.444;2024-03-08T04:32:38;99832.09;;;1.17;59.28
59939;BME280;45801;51.810;19.444;2024-03-08T04:35:09;99831.02;;;1.14;59.25
59939;BME280;45801;51.810;19.444;2024-03-08T04:37:35;99832.55;;;1.12;59.70
59939;BME280;45801;51.810;19.444;2024-03-08T04:40:04;99831.65;;;1.12;59.44
59939;BME280;45801;51.810;19.444;2024-03-08T04:42:39;99834.39;;;1.11;59.30
59939;BME280;45801;51.810;19.444;2024-03-08T04:45:08;99836.92;;;1.11;59.50
59939;BME280;45801;51.810;19.444;2024-03-08T04:47:37;99837.90;;;1.10;59.32
59939;BME280;45801;51.810;19.444;2024-03-08T04:50:06;99837.09;;;1.09;59.17
59939;BME280;45801;51.810;19.444;2024-03-08T04:52:35;99834.95;;;1.06;59.18
59939;BME280;45801;51.810;19.444;2024-03-08T04:55:05;99831.91;;;1.03;59.31
59939;BME280;45801;51.810;19.444;2024-03-08T04:57:37;99833.04;;;1.02;59.44
59939;BME280;45801;51.810;19.444;2024-03-08T05:00:05;99838.52;;;1.02;59.28
59939;BME280;45801;51.810;19.444;2024-03-08T05:02:38;99831.98;;;1.02;59.13
59939;BME280;45801;51.810;19.444;2024-03-08T05:05:08;99834.20;;;1.03;59.23
59939;BME280;45801;51.810;19.444;2024-03-08T05:07:47;99831.25;;;1.07;59.19
59939;BME280;45801;51.810;19.444;2024-03-08T05:10:14;99829.15;;;1.12;59.03
59939;BME280;45801;51.810;19.444;2024-03-08T05:12:44;99827.70;;;1.18;59.06
59939;BME280;45801;51.810;19.444;2024-03-08T05:15:11;99825.73;;;1.21;58.91
59939;BME280;45801;51.810;19.444;2024-03-08T05:17:38;99824.18;;;1.19;58.91
59939;BME280;45801;51.810;19.444;2024-03-08T05:20:11;99825.33;;;1.14;59.05
59939;BME280;45801;51.810;19.444;2024-03-08T05:22:40;99828.96;;;1.09;59.06
59939;BME280;45801;51.810;19.444;2024-03-08T05:25:10;99829.05;;;1.04;59.26
59939;BME280;45801;51.810;19.444;2024-03-08T05:27:38;99826.11;;;1.04;59.09
59939;BME280;45801;51.810;19.444;2024-03-08T05:30:06;99823.91;;;1.02;58.87
59939;BME280;45801;51.810;19.444;2024-03-08T05:32:36;99822.65;;;1.00;59.38
59939;BME280;45801;51.810;19.444;2024-03-08T05:35:04;99823.71;;;0.94;59.80
59939;BME280;45801;51.810;19.444;2024-03-08T05:37:34;99824.27;;;0.89;60.01
59939;BME280;45801;51.810;19.444;2024-03-08T05:40:03;99820.75;;;0.86;59.87
59939;BME280;45801;51.810;19.444;2024-03-08T05:42:35;99827.02;;;0.85;59.72
59939;BME280;45801;51.810;19.444;2024-03-08T05:45:09;99823.39;;;0.85;60.16
59939;BME280;45801;51.810;19.444;2024-03-08T05:47:42;99825.56;;;0.82;60.21
59939;BME280;45801;51.810;19.444;2024-03-08T05:50:12;99827.14;;;0.84;59.79
59939;BME280;45801;51.810;19.444;2024-03-08T05:53:05;99826.36;;;0.89;59.60
59939;BME280;45801;51.810;19.444;2024-03-08T05:55:36;99827.16;;;0.92;59.49
59939;BME280;45801;51.810;19.444;2024-03-08T05:58:19;99829.80;;;0.95;59.62
59939;BME280;45801;51.810;19.444;2024-03-08T06:00:49;99829.39;;;0.98;59.25
59939;BME280;45801;51.810;19.444;2024-03-08T06:03:34;99828.31;;;1.03;59.63
59939;BME280;45801;51.810;19.444;2024-03-08T06:06:00;99833.14;;;1.01;59.98
59939;BME280;45801;51.810;19.444;2024-03-08T06:08:27;99834.18;;;1.03;59.98
59939;BME280;45801;51.810;19.444;2024-03-08T06:10:57;99832.63;;;1.07;59.94
59939;BME280;45801;51.810;19.444;2024-03-08T06:13:25;99833.30;;;1.11;60.04
59939;BME280;45801;51.810;19.444;2024-03-08T06:15:52;99833.25;;;1.12;60.50
59939;BME280;45801;51.810;19.444;2024-03-08T06:18:18;99833.91;;;1.14;60.78
59939;BME280;45801;51.810;19.444;2024-03-08T06:20:44;99830.98;;;1.16;60.44
59939;BME280;45801;51.810;19.444;2024-03-08T06:23:12;99831.83;;;1.17;60.58
59939;BME280;45801;51.810;19.444;2024-03-08T06:25:38;99832.16;;;1.21;60.68
59939;BME280;45801;51.810;19.444;2024-03-08T06:28:05;99832.37;;;1.26;61.06
59939;BME280;45801;51.810;19.444;2024-03-08T06:30:32;99839.80;;;1.30;61.18
59939;BME280;45801;51.810;19.444;2024-03-08T06:32:58;99836.36;;;1.34;61.37
59939;BME280;45801;51.810;19.444;2024-03-08T06:35:25;99834.30;;;1.38;61.63
59939;BME280;45801;51.810;19.444;2024-03-08T06:37:51;99836.61;;;1.42;61.60
59939;BME280;45801;51.810;19.444;2024-03-08T06:40:20;99834.95;;;1.47;61.76
59939;BME280;45801;51.810;19.444;2024-03-08T06:42:46;99831.27;;;1.52;61.63
59939;BME280;45801;51.810;19.444;2024-03-08T06:45:13;99829.63;;;1.57;61.67
59939;BME280;45801;51.810;19.444;2024-03-08T06:47:45;99828.88;;;1.62;62.17
59939;BME280;45801;51.810;19.444;2024-03-08T06:50:12;99832.58;;;1.69;62.27
59939;BME280;45801;51.810;19.444;2024-03-08T06:52:38;99829.33;;;1.75;62.36
59939;BME280;45801;51.810;19.444;2024-03-08T06:55:05;99827.98;;;1.84;61.76
59939;BME280;45801;51.810;19.444;2024-03-08T06:57:31;99825.65;;;1.95;61.52
59939;BME280;45801;51.810;19.444;2024-03-08T06:59:58;99818.75;;;2.05;61.40
59939;BME280;45801;51.810;19.444;2024-03-08T07:02:25;99817.75;;;2.16;61.65
59939;BME280;45801;51.810;19.444;2024-03-08T07:04:51;99817.54;;;2.25;61.44
59939;BME280;45801;51.810;19.444;2024-03-08T07:07:19;99818.69;;;2.37;61.12
59939;BME280;45801;51.810;19.444;2024-03-08T07:09:48;99819.95;;;2.48;61.14
59939;BME280;45801;51.810;19.444;2024-03-08T07:12:15;99819.52;;;2.59;61.21
59939;BME280;45801;51.810;19.444;2024-03-08T07:14:42;99816.47;;;2.70;60.90
59939;BME280;45801;51.810;19.444;2024-03-08T07:17:10;99817.92;;;2.81;60.90
59939;BME280;45801;51.810;19.444;2024-03-08T07:19:38;99817.55;;;2.94;60.90
59939;BME280;45801;51.810;19.444;2024-03-08T07:22:05;99814.06;;;3.06;60.80
59939;BME280;45801;51.810;19.444;2024-03-08T07:24:37;99811.89;;;3.17;60.53
59939;BME280;45801;51.810;19.444;2024-03-08T07:27:16;99810.88;;;3.31;60.42
59939;BME280;45801;51.810;19.444;2024-03-08T07:29:43;99811.46;;;3.42;60.29
59939;BME280;45801;51.810;19.444;2024-03-08T07:32:10;99814.61;;;3.53;59.96
59939;BME280;45801;51.810;19.444;2024-03-08T07:34:48;99810.21;;;3.66;59.80
59939;BME280;45801;51.810;19.444;2024-03-08T07:37:17;99809.63;;;3.76;59.38
59939;BME280;45801;51.810;19.444;2024-03-08T07:39:45;99811.80;;;3.83;59.22
59939;BME280;45801;51.810;19.444;2024-03-08T07:42:12;99808.64;;;3.92;59.13
59939;BME280;45801;51.810;19.444;2024-03-08T07:44:38;99806.70;;;3.98;59.20
59939;BME280;45801;51.810;19.444;2024-03-08T07:47:05;99804.16;;;4.05;59.07
59939;BME280;45801;51.810;19.444;2024-03-08T07:49:33;99805.17;;;4.14;58.83
59939;BME280;45801;51.810;19.444;2024-03-08T07:52:00;99803.83;;;4.24;58.88
59939;BME280;45801;51.810;19.444;2024-03-08T07:54:27;99804.31;;;4.32;58.50
59939;BME280;45801;51.810;19.444;2024-03-08T07:56:53;99804.84;;;4.39;58.38
59939;BME280;45801;51.810;19.444;2024-03-08T07:59:20;99799.78;;;4.46;58.29
59939;BME280;45801;51.810;19.444;2024-03-08T08:01:47;99794.92;;;4.53;58.13
59939;BME280;45801;51.810;19.444;2024-03-08T08:04:14;99791.89;;;4.58;58.08
59939;BME280;45801;51.810;19.444;2024-03-08T08:06:41;99790.55;;;4.68;57.93
59939;BME280;45801;51.810;19.444;2024-03-08T08:09:07;99791.99;;;4.79;57.83
59939;BME280;45801;51.810;19.444;2024-03-08T08:11:55;99794.91;;;4.85;57.49
59939;BME280;45801;51.810;19.444;2024-03-08T08:14:21;99789.58;;;4.88;57.32
59939;BME280;45801;51.810;19.444;2024-03-08T08:16:48;99789.86;;;4.94;57.12
59939;BME280;45801;51.810;19.444;2024-03-08T08:19:16;99788.75;;;5.00;56.65
59939;BME280;45801;51.810;19.444;2024-03-08T08:22:01;99789.64;;;5.07;56.77
59939;BME280;45801;51.810;19.444;2024-03-08T08:24:29;99790.86;;;5.15;56.86
59939;BME280;45801;51.810;19.444;2024-03-08T08:26:56;99785.70;;;5.22;56.52
59939;BME280;45801;51.810;19.444;2024-03-08T08:29:22;99786.33;;;5.28;56.05
59939;BME280;45801;51.810;19.444;2024-03-08T08:31:49;99786.42;;;5.35;56.18
59939;BME280;45801;51.810;19.444;2024-03-08T08:34:16;99784.33;;;5.44;55.93
59939;BME280;45801;51.810;19.444;2024-03-08T08:36:45;99786.69;;;5.53;55.70
59939;BME280;45801;51.810;19.444;2024-03-08T08:39:11;99786.17;;;5.60;55.43
59939;BME280;45801;51.810;19.444;2024-03-08T08:41:43;99787.41;;;5.68;55.08
59939;BME280;45801;51.810;19.444;2024-03-08T08:44:09;99784.52;;;5.76;55.04
59939;BME280;45801;51.810;19.444;2024-03-08T08:46:39;99784.42;;;5.85;54.93
59939;BME280;45801;51.810;19.444;2024-03-08T08:49:05;99782.60;;;5.96;54.83
59939;BME280;45801;51.810;19.444;2024-03-08T08:51:34;99784.30;;;6.05;54.59
59939;BME280;45801;51.810;19.444;2024-03-08T08:54:01;99783.95;;;6.12;54.02
59939;BME280;45801;51.810;19.444;2024-03-08T08:56:28;99776.08;;;6.16;52.67
59939;BME280;45801;51.810;19.444;2024-03-08T08:58:57;99774.08;;;6.21;52.80
59939;BME280;45801;51.810;19.444;2024-03-08T09:01:24;99774.02;;;6.25;53.64
59939;BME280;45801;51.810;19.444;2024-03-08T09:03:50;99772.03;;;6.31;52.83
59939;BME280;45801;51.810;19.444;2024-03-08T09:06:18;99765.92;;;6.36;52.70
59939;BME280;45801;51.810;19.444;2024-03-08T09:08:44;99767.70;;;6.41;53.04
59939;BME280;45801;51.810;19.444;2024-03-08T09:11:12;99767.31;;;6.51;53.51
59939;BME280;45801;51.810;19.444;2024-03-08T09:13:39;99766.90;;;6.63;52.91
59939;BME280;45801;51.810;19.444;2024-03-08T09:16:05;99764.72;;;6.75;52.84
59939;BME280;45801;51.810;19.444;2024-03-08T09:18:33;99754.31;;;6.86;52.62
59939;BME280;45801;51.810;19.444;2024-03-08T09:20:59;99750.93;;;6.93;51.60
59939;BME280;45801;51.810;19.444;2024-03-08T09:23:26;99750.42;;;6.99;52.15
59939;BME280;45801;51.810;19.444;2024-03-08T09:25:57;99749.45;;;7.08;52.02
59939;BME280;45801;51.810;19.444;2024-03-08T09:28:24;99744.21;;;7.18;51.35
59939;BME280;45801;51.810;19.444;2024-03-08T09:30:51;99745.17;;;7.25;51.78
59939;BME280;45801;51.810;19.444;2024-03-08T09:33:17;99743.36;;;7.32;50.56
59939;BME280;45801;51.810;19.444;2024-03-08T09:35:46;99740.84;;;7.36;51.14
59939;BME280;45801;51.810;19.444;2024-03-08T09:38:17;99739.29;;;7.42;50.58
59939;BME280;45801;51.810;19.444;2024-03-08T09:40:44;99738.33;;;7.46;50.15
59939;BME280;45801;51.810;19.444;2024-03-08T09:43:10;99735.95;;;7.50;49.73
59939;BME280;45801;51.810;19.444;2024-03-08T09:45:42;99734.67;;;7.54;49.37
59939;BME280;45801;51.810;19.444;2024-03-08T09:48:12;99734.59;;;7.59;49.45
59939;BME280;45801;51.810;19.444;2024-03-08T09:50:40;99733.59;;;7.62;49.66
59939;BME280;45801;51.810;19.444;2024-03-08T09:53:08;99732.27;;;7.69;50.12
59939;BME280;45801;51.810;19.444;2024-03-08T09:55:38;99728.15;;;7.84;50.69
59939;BME280;45801;51.810;19.444;2024-03-08T09:58:10;99726.73;;;8.15;52.77
59939;BME280;45801;51.810;19.444;2024-03-08T10:00:56;99723.34;;;8.64;52.67
59939;BME280;45801;51.810;19.444;2024-03-08T10:03:24;99721.21;;;8.90;50.68
59939;BME280;45801;51.810;19.444;2024-03-08T10:05:53;99717.02;;;8.99;49.14
59939;BME280;45801;51.810;19.444;2024-03-08T10:08:27;99717.96;;;9.03;49.07
59939;BME280;45801;51.810;19.444;2024-03-08T10:10:56;99711.14;;;9.00;46.72
59939;BME280;45801;51.810;19.444;2024-03-08T10:13:25;99710.74;;;9.02;48.80
59939;BME280;45801;51.810;19.444;2024-03-08T10:15:55;99712.55;;;9.10;47.88
59939;BME280;45801;51.810;19.444;2024-03-08T10:18:21;99711.44;;;9.18;47.89
59939;BME280;45801;51.810;19.444;2024-03-08T10:21:07;99709.47;;;9.23;46.78
59939;BME280;45801;51.810;19.444;2024-03-08T10:23:39;99703.06;;;9.24;44.01
59939;BME280;45801;51.810;19.444;2024-03-08T10:26:12;99701.66;;;9.15;43.12
59939;BME280;45801;51.810;19.444;2024-03-08T10:28:44;99701.92;;;9.16;45.50
59939;BME280;45801;51.810;19.444;2024-03-08T10:31:11;99701.55;;;9.25;46.45
59939;BME280;45801;51.810;19.444;2024-03-08T10:33:37;99697.84;;;9.37;45.70
59939;BME280;45801;51.810;19.444;2024-03-08T10:36:08;99692.63;;;9.50;45.57
59939;BME280;45801;51.810;19.444;2024-03-08T10:38:37;99692.19;;;9.62;44.34
59939;BME280;45801;51.810;19.444;2024-03-08T10:41:07;99686.14;;;9.70;43.92
59939;BME280;45801;51.810;19.444;2024-03-08T10:43:57;99683.67;;;9.73;41.98
59939;BME280;45801;51.810;19.444;2024-03-08T10:52:15;99679.88;;;9.60;39.23
59939;BME280;45801;51.810;19.444;2024-03-08T10:54:43;99676.88;;;9.50;41.19
59939;BME280;45801;51.810;19.444;2024-03-08T10:57:12;99678.89;;;9.62;43.36
59939;BME280;45801;51.810;19.444;2024-03-08T10:59:39;99675.54;;;9.71;40.05
59939;BME280;45801;51.810;19.444;2024-03-08T11:02:06;99673.15;;;9.79;41.33
59939;BME280;45801;51.810;19.444;2024-03-08T11:04:33;99674.13;;;9.87;40.10
59939;BME280;45801;51.810;19.444;2024-03-08T11:07:03;99673.33;;;9.92;39.59
59939;BME280;45801;51.810;19.444;2024-03-08T11:09:36;99668.96;;;9.96;39.93
59939;BME280;45801;51.810;19.444;2024-03-08T11:12:28;99665.92;;;9.98;39.47
59939;BME280;45801;51.810;19.444;2024-03-08T11:15:09;99667.48;;;10.03;40.43
59939;BME280;45801;51.810;19.444;2024-03-08T11:17:51;99667.08;;;10.20;40.97
59939;BME280;45801;51.810;19.444;2024-03-08T11:20:23;99659.64;;;10.34;39.68
59939;BME280;45801;51.810;19.444;2024-03-08T11:22:52;99655.65;;;10.46;41.19
59939;BME280;45801;51.810;19.444;2024-03-08T11:25:31;99655.73;;;10.61;40.49
59939;BME280;45801;51.810;19.444;2024-03-08T11:30:35;99655.52;;;10.78;40.48
59939;BME280;45801;51.810;19.444;2024-03-08T11:33:01;99655.10;;;10.92;39.96
59939;BME280;45801;51.810;19.444;2024-03-08T11:35:31;99654.27;;;10.96;38.74
59939;BME280;45801;51.810;19.444;2024-03-08T11:37:59;99654.58;;;10.99;38.35
59939;BME280;45801;51.810;19.444;2024-03-08T11:40:27;99653.91;;;11.03;39.02
59939;BME280;45801;51.810;19.444;2024-03-08T11:42:53;99650.81;;;11.15;37.89
59939;BME280;45801;51.810;19.444;2024-03-08T11:45:21;99644.96;;;11.22;37.64
59939;BME280;45801;51.810;19.444;2024-03-08T11:47:48;99638.66;;;11.33;37.88
59939;BME280;45801;51.810;19.444;2024-03-08T11:50:15;99634.25;;;11.48;38.72
59939;BME280;45801;51.810;19.444;2024-03-08T11:52:43;99628.06;;;11.58;37.59
59939;BME280;45801;51.810;19.444;2024-03-08T11:55:11;99625.08;;;11.62;36.77
59939;BME280;45801;51.810;19.444;2024-03-08T11:57:38;99622.20;;;11.64;37.21
59939;BME280;45801;51.810;19.444;2024-03-08T12:00:06;99618.23;;;11.66;36.25
59939;BME280;45801;51.810;19.444;2024-03-08T12:02:34;99617.02;;;11.65;36.67
59939;BME280;45801;51.810;19.444;2024-03-08T12:05:05;99613.41;;;11.72;36.70
59939;BME280;45801;51.810;19.444;2024-03-08T12:07:36;99610.59;;;11.56;34.49
59939;BME280;45801;51.810;19.444;2024-03-08T12:12:46;99605.69;;;11.14;35.51
59939;BME280;45801;51.810;19.444;2024-03-08T12:15:21;99605.91;;;11.19;36.92
59939;BME280;45801;51.810;19.444;2024-03-08T12:17:51;99603.49;;;11.27;36.90
59939;BME280;45801;51.810;19.444;2024-03-08T12:20:20;99603.01;;;11.36;36.73
59939;BME280;45801;51.810;19.444;2024-03-08T12:22:51;99600.02;;;11.40;35.87
59939;BME280;45801;51.810;19.444;2024-03-08T12:25:30;99596.14;;;11.39;37.50
59939;BME280;45801;51.810;19.444;2024-03-08T12:28:11;99591.30;;;11.52;38.13
59939;BME280;45801;51.810;19.444;2024-03-08T12:30:46;99584.21;;;11.51;35.22
59939;BME280;45801;51.810;19.444;2024-03-08T12:33:13;99576.50;;;11.39;33.93
59939;BME280;45801;51.810;19.444;2024-03-08T12:35:40;99579.29;;;11.43;35.80
59939;BME280;45801;51.810;19.444;2024-03-08T12:38:08;99577.68;;;11.46;33.75
59939;BME280;45801;51.810;19.444;2024-03-08T12:40:35;99576.18;;;11.51;33.96
59939;BME280;45801;51.810;19.444;2024-03-08T12:43:06;99572.59;;;11.65;35.38
59939;BME280;45801;51.810;19.444;2024-03-08T12:45:33;99566.84;;;11.78;33.14
59939;BME280;45801;51.810;19.444;2024-03-08T12:47:59;99561.38;;;11.82;33.15
59939;BME280;45801;51.810;19.444;2024-03-08T12:50:26;99562.08;;;11.86;34.26
59939;BME280;45801;51.810;19.444;2024-03-08T12:52:52;99559.77;;;11.93;35.24
59939;BME280;45801;51.810;19.444;2024-03-08T12:55:19;99557.50;;;12.01;34.23
59939;BME280;45801;51.810;19.444;2024-03-08T12:57:47;99556.32;;;12.06;33.50
59939;BME280;45801;51.810;19.444;2024-03-08T13:00:15;99554.26;;;12.11;33.89
59939;BME280;45801;51.810;19.444;2024-03-08T13:02:49;99550.80;;;12.17;33.28
59939;BME280;45801;51.810;19.444;2024-03-08T13:05:18;99547.64;;;12.21;34.40
59939;BME280;45801;51.810;19.444;2024-03-08T13:07:44;99550.88;;;12.32;35.07
59939;BME280;45801;51.810;19.444;2024-03-08T13:10:13;99545.75;;;12.40;34.09
59939;BME280;45801;51.810;19.444;2024-03-08T13:12:44;99545.19;;;12.38;33.32
59939;BME280;45801;51.810;19.444;2024-03-08T13:15:11;99544.84;;;12.26;33.11
59939;BME280;45801;51.810;19.444;2024-03-08T13:17:49;99542.61;;;12.14;33.12
59939;BME280;45801;51.810;19.444;2024-03-08T13:20:16;99541.20;;;12.10;32.44